Map

Track Data

SID SEASON NUMBER BASIN SUBBASIN NAME ISO_TIME NATURE LAT LON WMO_WIND WMO_PRES WMO_AGENCY TRACK_TYPE DIST2LAND LANDFALL IFLAG USA_AGENCY USA_ATCF_ID USA_LAT USA_LON USA_RECORD USA_STATUS USA_WIND USA_PRES USA_SSHS USA_R34_NE USA_R34_SE USA_R34_SW USA_R34_NW USA_R50_NE USA_R50_SE USA_R50_SW USA_R50_NW USA_R64_NE USA_R64_SE USA_R64_SW USA_R64_NW USA_POCI USA_ROCI USA_RMW USA_EYE TOKYO_LAT TOKYO_LON TOKYO_GRADE TOKYO_WIND TOKYO_PRES TOKYO_R50_DIR TOKYO_R50_LONG TOKYO_R50_SHORT TOKYO_R30_DIR TOKYO_R30_LONG TOKYO_R30_SHORT TOKYO_LAND CMA_LAT CMA_LON CMA_CAT CMA_WIND CMA_PRES HKO_LAT HKO_LON HKO_CAT HKO_WIND HKO_PRES NEWDELHI_LAT NEWDELHI_LON NEWDELHI_GRADE NEWDELHI_WIND NEWDELHI_PRES NEWDELHI_CI NEWDELHI_DP NEWDELHI_POCI REUNION_LAT REUNION_LON REUNION_TYPE REUNION_WIND REUNION_PRES REUNION_TNUM REUNION_CI REUNION_RMW REUNION_R34_NE REUNION_R34_SE REUNION_R34_SW REUNION_R34_NW REUNION_R50_NE REUNION_R50_SE REUNION_R50_SW REUNION_R50_NW REUNION_R64_NE REUNION_R64_SE REUNION_R64_SW REUNION_R64_NW BOM_LAT BOM_LON BOM_TYPE BOM_WIND BOM_PRES BOM_TNUM BOM_CI BOM_RMW BOM_R34_NE BOM_R34_SE BOM_R34_SW BOM_R34_NW BOM_R50_NE BOM_R50_SE BOM_R50_SW BOM_R50_NW BOM_R64_NE BOM_R64_SE BOM_R64_SW BOM_R64_NW BOM_ROCI BOM_POCI BOM_EYE BOM_POS_METHOD BOM_PRES_METHOD NADI_LAT NADI_LON NADI_CAT NADI_WIND NADI_PRES WELLINGTON_LAT WELLINGTON_LON WELLINGTON_WIND WELLINGTON_PRES DS824_LAT DS824_LON DS824_STAGE DS824_WIND DS824_PRES TD9636_LAT TD9636_LON TD9636_STAGE TD9636_WIND TD9636_PRES TD9635_LAT TD9635_LON TD9635_WIND TD9635_PRES TD9635_ROCI NEUMANN_LAT NEUMANN_LON NEUMANN_CLASS NEUMANN_WIND NEUMANN_PRES MLC_LAT MLC_LON MLC_CLASS MLC_WIND MLC_PRES USA_GUST BOM_GUST BOM_GUST_PER REUNION_GUST REUNION_GUST_PER USA_SEAHGT USA_SEARAD_NE USA_SEARAD_SE USA_SEARAD_SW USA_SEARAD_NW STORM_SPEED STORM_DIR
1974158N10258 1974 44 EP MM CONNIE 1974-06-07 00:00:00 TS 9.60000 -102.500 30 hurdat_epa main 850 838 O________OO___ hurdat_epa EP031974 9.60000 -102.500 TD 30 -1 9.60000 -102.500 TC 30 9.60000 -102.500 1 30 8 310
1974158N10258 1974 44 EP MM CONNIE 1974-06-07 03:00:00 TS 9.84884 -102.801 main 842 825 P________PP___ EP031974 9.85004 -102.797 TD 30 -1 9.85004 -102.797 TC 30 9.84401 -102.817 1 30 8 310
1974158N10258 1974 44 EP MM CONNIE 1974-06-07 06:00:00 TS 10.0981 -103.105 30 hurdat_epa main 825 815 O________OP___ hurdat_epa EP031974 10.1000 -103.100 TD 30 -1 10.1000 -103.100 TC 30 10.0903 -103.127 1 30 8 310
1974158N10258 1974 44 EP MM CONNIE 1974-06-07 09:00:00 TS 10.3483 -103.411 main 820 800 P________PP___ EP031974 10.3500 -103.408 TD 30 -1 10.3500 -103.408 TC 30 10.3414 -103.424 1 30 8 311
1974158N10258 1974 44 EP MM CONNIE 1974-06-07 12:00:00 TS 10.6000 -103.700 30 hurdat_epa main 800 787 O________OO___ hurdat_epa EP031974 10.6000 -103.700 TD 30 -1 10.6000 -103.700 TC 30 10.6000 -103.700 1 30 8 313
1974158N10258 1974 44 EP MM CONNIE 1974-06-07 15:00:00 TS 10.8589 -103.968 main 781 765 P________PP___ EP031974 10.8575 -103.973 TD 30 -1 10.8575 -103.973 TC 30 10.8646 -103.949 1 30 7 316
1974158N10258 1974 44 EP MM CONNIE 1974-06-07 18:00:00 TS 11.1035 -104.193 30 hurdat_epa main 770 755 O________OP___ hurdat_epa EP031974 11.1000 -104.200 TD 30 -1 11.1000 -104.200 TC 30 11.1174 -104.167 1 30 6 321
1974158N10258 1974 44 EP MM CONNIE 1974-06-07 21:00:00 TS 11.3373 -104.368 main 760 745 P________PP___ EP031974 11.3375 -104.373 TD 30 -1 11.3375 -104.373 TC 30 11.3365 -104.352 1 30 5 323
1974158N10258 1974 44 EP MM CONNIE 1974-06-08 00:00:00 TS 11.5000 -104.500 30 hurdat_epa main 745 745 O________OO___ hurdat_epa EP031974 11.5000 -104.500 TD 30 -1 11.5000 -104.500 TC 30 11.5000 -104.500 1 30 3 309
1974158N10258 1974 44 EP MM CONNIE 1974-06-08 03:00:00 TS 11.5304 -104.614 main 750 750 P________PP___ EP031974 11.5225 -104.615 TD 30 -1 11.5225 -104.615 TC 30 11.5621 -104.611 1 28 2 274
1974158N10258 1974 44 EP MM CONNIE 1974-06-08 06:00:00 TS 11.5145 -104.698 30 hurdat_epa main 756 756 O________OP___ hurdat_epa EP031974 11.5000 -104.700 TD 30 -1 11.5000 -104.700 TC 30 11.5724 -104.688 1 27 1 272
1974158N10258 1974 44 EP MM CONNIE 1974-06-08 09:00:00 TS 11.5363 -104.755 main 761 752 P________PP___ EP031974 11.5275 -104.758 TD 30 -1 11.5275 -104.758 TC 30 11.5715 -104.745 1 26 1 311
1974158N10258 1974 44 EP MM CONNIE 1974-06-08 12:00:00 TS 11.6000 -104.800 30 hurdat_epa main 752 742 O________OO___ hurdat_epa EP031974 11.6000 -104.800 TD 30 -1 11.6000 -104.800 TC 30 11.6000 -104.800 1 25 2 335
1974158N10258 1974 44 EP MM CONNIE 1974-06-08 15:00:00 TS 11.7324 -104.848 main 742 726 P________PP___ EP031974 11.7350 -104.843 TD 32 -1 11.7350 -104.843 TC 32 11.7222 -104.871 1 27 3 340
1974158N10258 1974 44 EP MM CONNIE 1974-06-08 18:00:00 TS 11.8955 -104.909 35 hurdat_epa main 726 715 O________OP___ hurdat_epa EP031974 11.9000 -104.900 TS 35 0 11.9000 -104.900 TC 35 11.8775 -104.942 1 30 4 336
1974158N10258 1974 44 EP MM CONNIE 1974-06-08 21:00:00 TS 12.0548 -104.998 main 708 701 P________PP___ EP031974 12.0575 -104.992 TS 35 0 12.0575 -104.992 TC 35 12.0440 -105.018 1 32 4 329
1974158N10258 1974 44 EP MM CONNIE 1974-06-09 00:00:00 TS 12.2000 -105.100 35 hurdat_epa main 701 690 O________OO___ hurdat_epa EP031974 12.2000 -105.100 TS 35 0 12.2000 -105.100 TC 35 12.2000 -105.100 2 35 3 323
1974158N10258 1974 44 EP MM CONNIE 1974-06-09 03:00:00 TS 12.3105 -105.198 main 694 683 P________PP___ EP031974 12.3075 -105.200 TS 35 0 12.3075 -105.200 TC 35 12.3225 -105.189 2 36 3 317
1974158N10258 1974 44 EP MM CONNIE 1974-06-09 06:00:00 TS 12.4060 -105.297 35 hurdat_epa main 687 676 O________OP___ hurdat_epa EP031974 12.4000 -105.300 TS 35 0 12.4000 -105.300 TC 35 12.4300 -105.285 2 37 3 316
1974158N10258 1974 44 EP MM CONNIE 1974-06-09 09:00:00 TS 12.5105 -105.398 main 680 669 P________PP___ EP031974 12.5075 -105.400 TS 37 0 12.5075 -105.400 TC 37 12.5225 -105.389 2 38 3 314
1974158N10258 1974 44 EP MM CONNIE 1974-06-09 12:00:00 TS 12.6000 -105.500 40 hurdat_epa main 673 665 O________OO___ hurdat_epa EP031974 12.6000 -105.500 TS 40 0 12.6000 -105.500 TC 40 12.6000 -105.500 2 40 2 307
1974158N10258 1974 44 EP MM CONNIE 1974-06-09 15:00:00 TS 12.6580 -105.596 main 665 665 P________PP___ EP031974 12.6575 -105.593 TS 40 0 12.6575 -105.593 TC 40 12.6603 -105.610 2 40 2 297
1974158N10258 1974 44 EP MM CONNIE 1974-06-09 18:00:00 TS 12.7015 -105.706 40 hurdat_epa main 669 669 O________OP___ hurdat_epa EP031974 12.7000 -105.700 TS 40 0 12.7000 -105.700 TC 40 12.7074 -105.728 2 40 3 291
1974158N10258 1974 44 EP MM CONNIE 1974-06-09 21:00:00 TS 12.7502 -105.845 main 663 663 P________PP___ EP031974 12.7500 -105.843 TS 40 0 12.7500 -105.843 TC 40 12.7509 -105.857 2 40 3 289
1974158N10258 1974 44 EP MM CONNIE 1974-06-10 00:00:00 TS 12.8000 -106.000 40 hurdat_epa main 671 671 O________OO___ hurdat_epa EP031974 12.8000 -106.000 TS 40 0 12.8000 -106.000 TC 40 12.8000 -106.000 2 40 3 288
1974158N10258 1974 44 EP MM CONNIE 1974-06-10 03:00:00 TS 12.8475 -106.146 main 675 670 P________PP___ EP031974 12.8425 -106.143 TS 40 0 12.8425 -106.143 TC 40 12.8678 -106.161 2 40 3 290
1974158N10258 1974 44 EP MM CONNIE 1974-06-10 06:00:00 TS 12.9085 -106.307 40 hurdat_epa main 674 669 O________OP___ hurdat_epa EP031974 12.9000 -106.300 TS 40 0 12.9000 -106.300 TC 40 12.9425 -106.335 2 40 4 294
1974158N10258 1974 44 EP MM CONNIE 1974-06-10 09:00:00 TS 12.9982 -106.503 main 674 669 P________PP___ EP031974 12.9925 -106.500 TS 40 0 12.9925 -106.500 TC 40 13.0209 -106.517 2 40 4 297
1974158N10258 1974 44 EP MM CONNIE 1974-06-10 12:00:00 TS 13.1000 -106.700 40 hurdat_epa main 675 671 O________OO___ hurdat_epa EP031974 13.1000 -106.700 TS 40 0 13.1000 -106.700 TC 40 13.1000 -106.700 2 40 4 301
1974158N10258 1974 44 EP MM CONNIE 1974-06-10 15:00:00 TS 13.2018 -106.854 main 676 667 P________PP___ EP031974 13.2075 -106.850 TS 40 0 13.2075 -106.850 TC 40 13.1790 -106.871 2 40 4 303
1974158N10258 1974 44 EP MM CONNIE 1974-06-10 18:00:00 TS 13.2915 -107.009 40 hurdat_epa main 673 673 O________OP___ hurdat_epa EP031974 13.3000 -107.000 TS 40 0 13.3000 -107.000 TC 40 13.2574 -107.043 2 40 4 294
1974158N10258 1974 44 EP MM CONNIE 1974-06-10 21:00:00 TS 13.3524 -107.198 main 676 676 P________PP___ EP031974 13.3575 -107.193 TS 40 0 13.3575 -107.193 TC 40 13.3321 -107.218 2 40 4 286
1974158N10258 1974 44 EP MM CONNIE 1974-06-11 00:00:00 TS 13.4000 -107.400 40 hurdat_epa main 689 689 O________OO___ hurdat_epa EP031974 13.4000 -107.400 TS 40 0 13.4000 -107.400 TC 40 13.4000 -107.400 2 40 4 284
1974158N10258 1974 44 EP MM CONNIE 1974-06-11 03:00:00 TS 13.4522 -107.602 main 693 693 P________PP___ EP031974 13.4500 -107.600 TS 40 0 13.4500 -107.600 TC 40 13.4613 -107.609 2 40 4 285
1974158N10258 1974 44 EP MM CONNIE 1974-06-11 06:00:00 TS 13.5030 -107.805 40 hurdat_epa main 707 707 O________OP___ hurdat_epa EP031974 13.5000 -107.800 TS 40 0 13.5000 -107.800 TC 40 13.5151 -107.822 2 40 4 284
1974158N10258 1974 44 EP MM CONNIE 1974-06-11 09:00:00 TS 13.5523 -108.017 main 712 712 P________PP___ EP031974 13.5500 -108.015 TS 40 0 13.5500 -108.015 TC 40 13.5613 -108.025 2 40 4 284
1974158N10258 1974 44 EP MM CONNIE 1974-06-11 12:00:00 TS 13.6000 -108.200 40 hurdat_epa main 724 719 O________OO___ hurdat_epa EP031974 13.6000 -108.200 TS 40 0 13.6000 -108.200 TC 40 13.6000 -108.200 2 40 3 289
1974158N10258 1974 44 EP MM CONNIE 1974-06-11 15:00:00 TS 13.6532 -108.314 main 719 719 P________PP___ EP031974 13.6575 -108.315 TS 40 0 13.6575 -108.315 TC 40 13.6361 -108.308 2 41 2 295
1974158N10258 1974 44 EP MM CONNIE 1974-06-11 18:00:00 TS 13.6930 -108.399 40 987 hurdat_epa main 725 725 O________OP___ hurdat_epa EP031974 13.7000 -108.400 TS 40 987 0 13.7000 -108.400 TC 40 987 13.6648 -108.393 2 42 2 286
1974158N10258 1974 44 EP MM CONNIE 1974-06-11 21:00:00 TS 13.7032 -108.484 main 731 731 P________PP___ EP031974 13.7075 -108.485 TS 42 0 13.7075 -108.485 TC 42 13.6861 -108.480 2 43 2 272
1974158N10258 1974 44 EP MM CONNIE 1974-06-12 00:00:00 TS 13.7000 -108.600 45 hurdat_epa main 736 736 O________OO___ hurdat_epa EP031974 13.7000 -108.600 TS 45 0 13.7000 -108.600 TC 45 13.7000 -108.600 2 45 3 269
1974158N10258 1974 44 EP MM CONNIE 1974-06-12 03:00:00 TS 13.7006 -108.780 main 748 748 P________PP___ EP031974 13.7000 -108.778 TS 47 0 13.7000 -108.778 TC 47 13.7032 -108.789 2 47 4 270
1974158N10258 1974 44 EP MM CONNIE 1974-06-12 06:00:00 TS 13.7000 -109.003 50 hurdat_epa main 761 761 O________OP___ hurdat_epa EP031974 13.7000 -109.000 TS 50 0 13.7000 -109.000 TC 50 13.7001 -109.013 2 50 5 270
1974158N10258 1974 44 EP MM CONNIE 1974-06-12 09:00:00 TS 13.6994 -109.251 main 780 780 P________PP___ EP031974 13.7000 -109.250 TS 52 0 13.7000 -109.250 TC 52 13.6969 -109.255 2 52 5 270
1974158N10258 1974 44 EP MM CONNIE 1974-06-12 12:00:00 TS 13.7000 -109.500 55 hurdat_epa main 793 793 O________OO___ hurdat_epa EP031974 13.7000 -109.500 TS 55 0 13.7000 -109.500 TC 55 13.7000 -109.500 2 55 4 269
1974158N10258 1974 44 EP MM CONNIE 1974-06-12 15:00:00 TS 13.6951 -109.703 main 807 807 P________PP___ EP031974 13.6924 -109.700 TS 60 0 13.6924 -109.700 TC 60 13.7055 -109.717 2 60 4 271
1974158N10258 1974 44 EP MM CONNIE 1974-06-12 18:00:00 TS 13.7040 -109.907 65 hurdat_epa main 821 821 O________OP___ hurdat_epa EP031974 13.7000 -109.900 HU 65 1 13.7000 -109.900 TC 65 13.7198 -109.935 2 65 4 276
1974158N10258 1974 44 EP MM CONNIE 1974-06-12 21:00:00 TS 13.7378 -110.140 main 835 834 P________PP___ EP031974 13.7350 -110.135 HU 70 1 13.7350 -110.135 TC 70 13.7492 -110.161 2 70 5 281
1974158N10258 1974 44 EP MM CONNIE 1974-06-13 00:00:00 TS 13.8000 -110.400 75 hurdat_epa main 849 849 O________OO___ hurdat_epa EP031974 13.8000 -110.400 HU 75 1 13.8000 -110.400 TC 75 13.8000 -110.400 4 75 6 286
1974158N10258 1974 44 EP MM CONNIE 1974-06-13 03:00:00 TS 13.8889 -110.695 main 864 864 P________PP___ EP031974 13.8925 -110.700 HU 77 1 13.8925 -110.700 TC 77 13.8744 -110.673 4 76 6 289
1974158N10258 1974 44 EP MM CONNIE 1974-06-13 06:00:00 TS 13.9940 -110.991 80 hurdat_epa main 879 879 O________OP___ hurdat_epa EP031974 14.0000 -111.000 HU 80 1 14.0000 -111.000 TC 80 13.9701 -110.957 4 77 6 291
1974158N10258 1974 44 EP MM CONNIE 1974-06-13 09:00:00 TS 14.0961 -111.260 main 894 894 P________PP___ EP031974 14.1000 -111.265 HU 80 1 14.1000 -111.265 TC 80 14.0807 -111.238 4 78 5 293
1974158N10258 1974 44 EP MM CONNIE 1974-06-13 12:00:00 TS 14.2000 -111.500 80 hurdat_epa main 901 901 O________OO___ hurdat_epa EP031974 14.2000 -111.500 HU 80 1 14.2000 -111.500 TC 80 14.2000 -111.500 4 80 5 295
1974158N10258 1974 44 EP MM CONNIE 1974-06-13 15:00:00 TS 14.2959 -111.713 main 909 909 P________PP___ EP031974 14.2925 -111.708 HU 85 2 14.2925 -111.708 TC 85 14.3096 -111.734 4 87 4 297
1974158N10258 1974 44 EP MM CONNIE 1974-06-13 18:00:00 TS 14.4055 -111.909 90 942 hurdat_epa main 918 918 O________OP___ hurdat_epa EP031974 14.4000 -111.900 HU 90 942 2 14.4000 -111.900 TC 90 942 14.4274 -111.945 4 95 5 303
1974158N10258 1974 44 EP MM CONNIE 1974-06-13 21:00:00 TS 14.5453 -112.113 main 927 920 P________PP___ EP031974 14.5425 -112.107 HU 100 3 14.5425 -112.107 TC 100 14.5565 -112.134 4 102 5 308
1974158N10258 1974 44 EP MM CONNIE 1974-06-14 00:00:00 TS 14.7000 -112.300 110 hurdat_epa main 930 930 O________OO___ hurdat_epa EP031974 14.7000 -112.300 HU 110 3 14.7000 -112.300 TC 110 14.7000 -112.300 4 110 5 312
1974158N10258 1974 44 EP MM CONNIE 1974-06-14 03:00:00 TS 14.8469 -112.462 main 940 925 P________PP___ EP031974 14.8425 -112.465 HU 102 3 14.8425 -112.465 TC 102 14.8646 -112.451 4 103 4 317
1974158N10258 1974 44 EP MM CONNIE 1974-06-14 06:00:00 TS 15.0085 -112.596 95 hurdat_epa main 925 906 O________OP___ hurdat_epa EP031974 15.0000 -112.600 HU 95 2 15.0000 -112.600 TC 95 15.0424 -112.580 4 97 4 327
1974158N10258 1974 44 EP MM CONNIE 1974-06-14 09:00:00 TS 15.2048 -112.705 main 906 888 P________PP___ EP031974 15.2000 -112.708 HU 90 2 15.2000 -112.708 TC 90 15.2240 -112.694 4 91 4 333
1974158N10258 1974 44 EP MM CONNIE 1974-06-14 12:00:00 TS 15.4000 -112.800 85 hurdat_epa main 888 878 O________OO___ hurdat_epa EP031974 15.4000 -112.800 HU 85 2 15.4000 -112.800 TC 85 15.4000 -112.800 4 85 4 331
1974158N10258 1974 44 EP MM CONNIE 1974-06-14 15:00:00 TS 15.5542 -112.906 main 871 864 P________PP___ EP031974 15.5575 -112.900 HU 82 1 15.5575 -112.900 TC 82 15.5409 -112.928 4 82 4 326
1974158N10258 1974 44 EP MM CONNIE 1974-06-14 18:00:00 TS 15.6955 -113.009 80 hurdat_epa main 864 858 O________OP___ hurdat_epa EP031974 15.7000 -113.000 HU 80 1 15.7000 -113.000 TC 80 15.6775 -113.045 4 80 3 323
1974158N10258 1974 44 EP MM CONNIE 1974-06-14 21:00:00 TS 15.8331 -113.120 main 858 841 P________PP___ EP031974 15.8350 -113.115 HU 77 1 15.8350 -113.115 TC 77 15.8253 -113.140 4 77 4 329
1974158N10258 1974 44 EP MM CONNIE 1974-06-15 00:00:00 TS 16.0000 -113.200 75 hurdat_epa main 841 820 O________OO___ hurdat_epa EP031974 16.0000 -113.200 HU 75 1 16.0000 -113.200 TC 75 16.0000 -113.200 4 75 4 347
1974158N10258 1974 44 EP MM CONNIE 1974-06-15 03:00:00 TS 16.2355 -113.223 main 820 790 P________PP___ EP031974 16.2350 -113.223 HU 70 1 16.2350 -113.223 TC 70 16.2374 -113.227 4 72 5 358
1974158N10258 1974 44 EP MM CONNIE 1974-06-15 06:00:00 TS 16.5000 -113.204 65 hurdat_epa main 790 769 O________OP___ hurdat_epa EP031974 16.5000 -113.200 HU 65 1 16.5000 -113.200 TC 65 16.4999 -113.218 4 70 5 6
1974158N10258 1974 44 EP MM CONNIE 1974-06-15 09:00:00 TS 16.7585 -113.167 main 759 735 P________PP___ EP031974 16.7575 -113.165 HU 65 1 16.7575 -113.165 TC 65 16.7624 -113.174 4 67 5 11
1974158N10258 1974 44 EP MM CONNIE 1974-06-15 12:00:00 TS 17.0000 -113.100 65 hurdat_epa main 735 710 O________OO___ hurdat_epa EP031974 17.0000 -113.100 HU 65 1 17.0000 -113.100 TC 65 17.0000 -113.100 4 65 5 17
1974158N10258 1974 44 EP MM CONNIE 1974-06-15 15:00:00 TS 17.2218 -113.019 main 710 685 P________PP___ EP031974 17.2225 -113.015 HU 65 1 17.2225 -113.015 TC 65 17.2192 -113.036 4 62 4 24
1974158N10258 1974 44 EP MM CONNIE 1974-06-15 18:00:00 TS 17.4009 -112.908 65 hurdat_epa main 685 670 O________OP___ hurdat_epa EP031974 17.4000 -112.900 HU 65 1 17.4000 -112.900 TC 65 17.4047 -112.940 4 60 4 35
1974158N10258 1974 44 EP MM CONNIE 1974-06-15 21:00:00 TS 17.5315 -112.790 main 670 651 P________PP___ EP031974 17.5299 -112.787 HU 60 0 17.5299 -112.787 TC 60 17.5378 -112.799 4 57 4 56
1974158N10258 1974 44 EP MM CONNIE 1974-06-16 00:00:00 TS 17.6000 -112.600 55 hurdat_epa main 651 639 O________OO___ hurdat_epa EP031974 17.6000 -112.600 TS 55 0 17.6000 -112.600 TC 55 17.6000 -112.600 2 55 5 78
1974158N10258 1974 44 EP MM CONNIE 1974-06-16 03:00:00 TS 17.6330 -112.276 main 639 624 P________PP___ EP031974 17.6451 -112.273 TS 55 0 17.6451 -112.273 TC 55 17.5846 -112.291 2 53 7 92
1974158N10258 1974 44 EP MM CONNIE 1974-06-16 06:00:00 TS 17.5797 -111.907 55 hurdat_epa main 624 621 O________OP___ hurdat_epa EP031974 17.6000 -111.900 TS 55 0 17.6000 -111.900 TC 55 17.4983 -111.934 2 52 7 108
1974158N10258 1974 44 EP MM CONNIE 1974-06-16 09:00:00 TS 17.4166 -111.567 main 637 634 P________PP___ EP031974 17.4300 -111.562 TS 52 0 17.4300 -111.562 TC 52 17.3627 -111.585 2 51 7 123
1974158N10258 1974 44 EP MM CONNIE 1974-06-16 12:00:00 TS 17.2000 -111.300 50 hurdat_epa main 651 651 O________OO___ hurdat_epa EP031974 17.2000 -111.300 TS 50 0 17.2000 -111.300 TC 50 17.2000 -111.300 2 50 6 137
1974158N10258 1974 44 EP MM CONNIE 1974-06-16 15:00:00 TS 16.9910 -111.158 main 671 669 P________PP___ EP031974 16.9924 -111.163 TS 50 0 16.9924 -111.163 TC 50 16.9853 -111.141 2 47 5 154
1974158N10258 1974 44 EP MM CONNIE 1974-06-16 18:00:00 TS 16.7919 -111.091 50 hurdat_epa main 690 690 O________OP___ hurdat_epa EP031974 16.8000 -111.100 TS 50 0 16.8000 -111.100 TC 50 16.7597 -111.053 2 45 4 163
1974158N10258 1974 44 EP MM CONNIE 1974-06-16 21:00:00 TS 16.5878 -111.031 main 694 694 P________PP___ EP031974 16.5900 -111.035 TS 45 0 16.5900 -111.035 TC 45 16.5792 -111.013 2 42 3 164
1974158N10258 1974 44 EP MM CONNIE 1974-06-17 00:00:00 TS 16.5000 -111.000 40 hurdat_epa main 700 694 O________OO___ hurdat_epa EP031974 16.5000 -111.000 TS 40 0 16.5000 -111.000 TC 40 16.5000 -111.000 2 40 1 39
1974158N10258 1974 44 EP MM CONNIE 1974-06-17 03:00:00 TS 16.6413 -110.994 main 694 675 P________PP___ EP031974 16.6475 -110.993 TS 37 0 16.6475 -110.993 TC 37 16.6165 -110.999 2 37 4 0
1974158N10258 1974 44 EP MM CONNIE 1974-06-17 06:00:00 TS 16.8865 -111.003 35 hurdat_epa main 675 657 O________OP___ hurdat_epa EP031974 16.9000 -111.000 TS 35 0 16.9000 -111.000 TC 35 16.8324 -111.015 2 35 5 0
1974158N10258 1974 44 EP MM CONNIE 1974-06-17 09:00:00 TS 17.1084 -111.017 main 657 634 P________PP___ EP031974 17.1150 -111.015 TS 32 -1 17.1150 -111.015 TC 32 17.0821 -111.024 2 32 4 0
1974158N10258 1974 44 EP MM CONNIE 1974-06-17 12:00:00 TS 17.3000 -111.000 30 hurdat_epa main 634 622 O________OO___ hurdat_epa EP031974 17.3000 -111.000 TD 30 -1 17.3000 -111.000 TC 30 17.3000 -111.000 1 30 3 15
1974158N10258 1974 44 EP MM CONNIE 1974-06-17 15:00:00 TS 17.4283 -110.928 main 622 609 P________PP___ EP031974 17.4300 -110.923 TD 30 -1 17.4300 -110.923 TC 30 17.4213 -110.952 1 30 3 41
1974158N10258 1974 44 EP MM CONNIE 1974-06-17 18:00:00 TS 17.4994 -110.813 30 hurdat_epa main 609 608 O________OP___ hurdat_epa EP031974 17.5000 -110.800 TD 30 -1 17.5000 -110.800 TC 30 17.4971 -110.863 1 30 2 66
1974158N10258 1974 44 EP MM CONNIE 1974-06-17 21:00:00 TS 17.5288 -110.694 main 608 596 P________PP___ EP031974 17.5299 -110.688 TD 30 -1 17.5299 -110.688 TC 30 17.5243 -110.718 1 30 3 90
1974158N10258 1974 44 EP MM CONNIE 1974-06-18 00:00:00 TS 17.5000 -110.500 30 hurdat_epa main 596 574 O________OO___ hurdat_epa EP031974 17.5000 -110.500 TD 30 -1 17.5000 -110.500 TC 30 17.5000 -110.500 1 30 5 102
1974158N10258 1974 44 EP MM CONNIE 1974-06-18 03:00:00 TS 17.4232 -110.185 main 574 544 P________PP___ EP031974 17.4225 -110.188 TD 30 -1 17.4225 -110.188 TC 30 17.4258 -110.176 1 28 7 107
1974158N10258 1974 44 EP MM CONNIE 1974-06-18 06:00:00 TS 17.3006 -109.797 30 hurdat_epa main 544 515 O________OP___ hurdat_epa EP031974 17.3000 -109.800 TD 30 -1 17.3000 -109.800 TC 30 17.3032 -109.787 1 27 8 109
1974158N10258 1974 44 EP MM CONNIE 1974-06-18 09:00:00 TS 17.1568 -109.384 main 515 493 P________PP___ EP031974 17.1576 -109.385 TD 30 -1 17.1576 -109.385 TC 30 17.1539 -109.379 1 26 8 112
1974158N10258 1974 44 EP MM CONNIE 1974-06-18 12:00:00 TS 17.0000 -109.000 30 hurdat_epa main 493 476 O________OO___ hurdat_epa EP031974 17.0000 -109.000 TD 30 -1 17.0000 -109.000 TC 30 17.0000 -109.000 1 25 7 116
1974158N10258 1974 44 EP MM CONNIE 1974-06-18 15:00:00 TS 16.8415 -108.720 main 483 476 P________PP___ EP031974 16.8424 -108.728 TD 30 -1 16.8424 -108.728 TC 30 16.8383 -108.690 1 27 6 122
1974158N10258 1974 44 EP MM CONNIE 1974-06-18 18:00:00 TS 16.6965 -108.483 30 hurdat_epa main 476 461 O________OP___ hurdat_epa EP031974 16.7000 -108.500 TD 30 -1 16.7000 -108.500 TC 30 16.6823 -108.417 1 30 5 120
1974158N10258 1974 44 EP MM CONNIE 1974-06-18 21:00:00 TS 16.5681 -108.225 main 461 453 P________PP___ EP031974 16.5700 -108.235 TD 32 -1 16.5700 -108.235 TC 32 16.5602 -108.186 1 32 5 113
1974158N10258 1974 44 EP MM CONNIE 1974-06-19 00:00:00 TS 16.5000 -108.000 35 hurdat_epa main 453 438 O________OO___ hurdat_epa EP031974 16.5000 -108.000 TS 35 0 16.5000 -108.000 TC 35 16.5000 -108.000 2 35 4 98
1974158N10258 1974 44 EP MM CONNIE 1974-06-19 03:00:00 TS 16.5146 -107.823 main 438 422 P________PP___ EP031974 16.5125 -107.820 TS 35 0 16.5125 -107.820 TC 35 16.5230 -107.837 2 36 3 70
1974158N10258 1974 44 EP MM CONNIE 1974-06-19 06:00:00 TS 16.6020 -107.704 35 hurdat_epa main 422 407 O________OP___ hurdat_epa EP031974 16.6000 -107.700 TS 35 0 16.6000 -107.700 TC 35 16.6098 -107.718 2 37 3 40
1974158N10258 1974 44 EP MM CONNIE 1974-06-19 09:00:00 TS 16.7363 -107.630 main 407 391 P________PP___ EP031974 16.7350 -107.628 TS 37 0 16.7350 -107.628 TC 37 16.7418 -107.640 2 38 3 18
1974158N10258 1974 44 EP MM CONNIE 1974-06-19 12:00:00 TS 16.9000 -107.600 40 hurdat_epa main 391 384 O________OO___ hurdat_epa EP031974 16.9000 -107.600 TS 40 0 16.9000 -107.600 TC 40 16.9000 -107.600 2 40 3 7
1974158N10258 1974 44 EP MM CONNIE 1974-06-19 15:00:00 TS 17.0430 -107.581 main 384 368 P________PP___ EP031974 17.0425 -107.585 TS 37 0 17.0425 -107.585 TC 37 17.0452 -107.565 2 37 3 0
1974158N10258 1974 44 EP MM CONNIE 1974-06-19 18:00:00 TS 17.2025 -107.594 35 hurdat_epa main 368 353 O________OP___ hurdat_epa EP031974 17.2000 -107.600 TS 35 0 17.2000 -107.600 TC 35 17.2124 -107.568 2 35 3 353
1974158N10258 1974 44 EP MM CONNIE 1974-06-19 21:00:00 TS 17.3877 -107.624 main 353 345 P________PP___ EP031974 17.3850 -107.628 TS 30 -1 17.3850 -107.628 TC 30 17.3983 -107.612 2 32 4 345
1974158N10258 1974 44 EP MM CONNIE 1974-06-20 00:00:00 TS 17.6000 -107.700 25 hurdat_epa main 345 337 O________OO___ hurdat_epa EP031974 17.6000 -107.700 TD 25 -1 17.6000 -107.700 TC 25 17.6000 -107.700 1 30 5 338
1974158N10258 1974 44 EP MM CONNIE 1974-06-20 03:00:00 TS 17.8429 -107.819 main 338 331 P________PP___ EP031974 17.8500 -107.827 TD 25 -1 17.8500 -107.827 TC 25 17.8144 -107.787 1 6 331
1974158N10258 1974 44 EP MM CONNIE 1974-06-20 06:00:00 TS 18.0884 -107.985 25 hurdat_epa main 335 329 O________OP___ hurdat_epa EP031974 18.1000 -108.000 TD 25 -1 18.1000 -108.000 TC 25 18.0419 -107.923 1 6 326
1974158N10258 1974 44 EP MM CONNIE 1974-06-20 09:00:00 TS 18.3006 -108.149 main 332 332 P________PP___ EP031974 18.3073 -108.155 TD 25 -1 18.3073 -108.155 TC 25 18.2735 -108.122 1 6 316
1974158N10258 1974 44 EP MM CONNIE 1974-06-20 12:00:00 TS 18.5000 -108.400 25 hurdat_epa main 347 347 O________OO___ hurdat_epa EP031974 18.5000 -108.400 TD 25 -1 18.5000 -108.400 TC 25 18.5000 -108.400 1 7 302
1974158N10258 1974 44 EP MM CONNIE 1974-06-20 15:00:00 TS 18.7009 -108.813 main 375 375 P________PP___ EP031974 18.7001 -108.812 TD 25 -1 18.7001 -108.812 TC 25 18.7041 -108.815 1 9 295
1974158N10258 1974 44 EP MM CONNIE 1974-06-20 18:00:00 TS 18.9003 -109.300 25 hurdat_epa main 412 412 O________OP___ hurdat_epa EP031974 18.9000 -109.300 TD 25 -1 18.9000 -109.300 TC 25 18.9015 -109.299 1 10 293
1974158N10258 1974 44 EP MM CONNIE 1974-06-20 21:00:00 TS 19.0997 -109.787 main 424 402 P________PP___ EP031974 19.1001 -109.787 TD 25 -1 19.1001 -109.787 TC 25 19.0979 -109.784 1 9 295
1974158N10258 1974 44 EP MM CONNIE 1974-06-21 00:00:00 TS 19.3000 -110.200 25 hurdat_epa main 403 382 O________OO___ hurdat_epa EP031974 19.3000 -110.200 TD 25 -1 19.3000 -110.200 TC 25 19.3000 -110.200 1 30 7 302
1974158N10258 1974 44 EP MM CONNIE 1974-06-21 03:00:00 TS 19.4965 -110.450 main 383 363 P________PP___ EP031974 19.4923 -110.445 TD 25 -1 19.4923 -110.445 TC 25 19.5131 -110.471 1 30 6 316
1974158N10258 1974 44 EP MM CONNIE 1974-06-21 06:00:00 TS 19.7069 -110.613 25 hurdat_epa main 363 343 O________OP___ hurdat_epa EP031974 19.7000 -110.600 TD 25 -1 19.7000 -110.600 TC 25 19.7343 -110.663 1 30 5 326
1974158N10258 1974 44 EP MM CONNIE 1974-06-21 09:00:00 TS 19.9467 -110.772 main 345 315 P________PP___ EP031974 19.9425 -110.765 TD 25 -1 19.9425 -110.765 TC 25 19.9633 -110.799 1 30 6 331
1974158N10258 1974 44 EP MM CONNIE 1974-06-21 12:00:00 TS 20.2000 -110.900 25 hurdat_epa main 315 298 O________OO___ hurdat_epa EP031974 20.2000 -110.900 TD 25 -1 20.2000 -110.900 TC 25 20.2000 -110.900 1 30 6 336
1974158N10258 1974 44 EP MM CONNIE 1974-06-21 15:00:00 TS 20.4487 -111.009 main 298 270 P________PP___ EP031974 20.4500 -111.015 TD 25 -1 20.4500 -111.015 TC 25 20.4437 -110.986 1 5 340
1974158N10258 1974 44 EP MM CONNIE 1974-06-21 18:00:00 TS 20.6986 -111.092 25 hurdat_epa main 270 250 O________OP___ hurdat_epa EP031974 20.7000 -111.100 TD 25 -1 20.7000 -111.100 TC 25 20.6928 -111.062 1 5 345
1974158N10258 1974 44 EP MM CONNIE 1974-06-21 21:00:00 TS 20.9491 -111.153 main 255 226 P________PP___ EP031974 20.9500 -111.157 TD 25 -1 20.9500 -111.157 TC 25 20.9455 -111.133 1 5 349
1974158N10258 1974 44 EP MM CONNIE 1974-06-22 00:00:00 TS 21.2000 -111.200 25 hurdat_epa main 226 O________OO___ hurdat_epa EP031974 21.2000 -111.200 TD 25 -1 21.2000 -111.200 TC 25 21.2000 -111.200 1 5 352

About IBTrACS Database

This database is a web-friendly format of International Best Track Archive for Climate Stewardship (IBTrACS), a global best track data archive curated by NOAA dating back to 1842.

Updated: 2021-10-25